Time;durP1;ratioP1;P1;durP2;ratioP2;P2;SDS_P1;SDS_P2;PMS_P1;PMS_P2;Temp;Humidity;BMP_temperature;BMP_pressure;BME280_temperature;BME280_humidity;BME280_pressure;Samples;Min_cycle;Max_cycle;Signal;HPM_P1;HPM_P2
2022/07/01 00:00:20;;;;;;;46.77;44.20;;;;;;;14.70;100.00;96754.41;5073777;28;20287;-63
2022/07/01 00:02:45;;;;;;;46.23;43.60;;;;;;;14.48;100.00;96749.25;5073445;28;20198;-63
2022/07/01 00:05:11;;;;;;;49.23;46.43;;;;;;;14.32;100.00;96748.28;5073783;28;20170;-63
2022/07/01 00:07:36;;;;;;;45.33;42.60;;;;;;;14.47;100.00;96756.34;5073875;28;20614;-63
2022/07/01 00:10:03;;;;;;;44.83;42.40;;;;;;;14.59;100.00;96772.00;5073415;28;20209;-63
2022/07/01 00:12:29;;;;;;;44.60;42.27;;;;;;;14.48;100.00;96773.78;5073356;28;20657;-62
2022/07/01 00:14:54;;;;;;;39.07;36.90;;;;;;;14.20;100.00;96771.38;5073506;28;20197;-63
2022/07/01 00:17:20;;;;;;;41.10;38.80;;;;;;;14.25;100.00;96775.91;5073338;28;20247;-64
2022/07/01 00:19:45;;;;;;;40.57;37.13;;;;;;;14.18;100.00;96775.31;5055217;28;20564;-64
2022/07/01 00:22:12;;;;;;;32.57;30.77;;;;;;;14.17;100.00;96782.41;5073079;28;20200;-64
2022/07/01 00:24:38;;;;;;;38.07;35.87;;;;;;;14.37;100.00;96781.84;5073093;28;20737;-63
2022/07/01 00:27:03;;;;;;;38.40;36.40;;;;;;;14.51;100.00;96783.81;5072887;28;20185;-64
2022/07/01 00:29:29;;;;;;;36.50;34.63;;;;;;;14.30;100.00;96797.84;5072816;28;20591;-64
2022/07/01 00:31:54;;;;;;;33.63;31.87;;;;;;;14.37;100.00;96793.19;5072618;28;20204;-64
2022/07/01 00:34:20;;;;;;;28.70;27.27;;;;;;;14.32;100.00;96793.09;5072744;28;20181;-62
2022/07/01 00:36:45;;;;;;;32.50;30.77;;;;;;;14.35;100.00;96794.44;5072936;28;20231;-62
2022/07/01 00:39:10;;;;;;;33.80;32.10;;;;;;;14.42;100.00;96782.69;5070558;28;20323;-62
2022/07/01 00:41:37;;;;;;;33.73;32.00;;;;;;;14.20;100.00;96781.13;5072849;28;20611;-63
2022/07/01 00:44:02;;;;;;;25.87;24.33;;;;;;;13.80;100.00;96777.03;5072172;28;20240;-63
2022/07/01 00:46:28;;;;;;;24.27;23.00;;;;;;;13.76;100.00;96770.66;5072880;28;20193;-64
2022/07/01 00:48:56;;;;;;;21.60;20.50;;;;;;;13.57;100.00;96757.00;5072803;28;20170;-62
2022/07/01 00:51:22;;;;;;;23.70;22.53;;;;;;;13.51;100.00;96744.81;5072851;28;20211;-64
2022/07/01 00:53:48;;;;;;;23.13;21.93;;;;;;;13.55;100.00;96753.81;5072562;28;20200;-62
2022/07/01 00:56:13;;;;;;;27.60;26.20;;;;;;;13.66;100.00;96750.25;5054491;28;20594;-62
2022/07/01 00:58:40;;;;;;;30.87;29.07;;;;;;;13.68;100.00;96756.09;5072574;28;20530;-63
2022/07/01 01:01:05;;;;;;;27.73;26.23;;;;;;;13.52;100.00;96756.97;5072514;28;20224;-64
2022/07/01 01:03:31;;;;;;;33.20;31.13;;;;;;;13.93;100.00;96762.69;5072348;28;20224;-62
2022/07/01 01:05:57;;;;;;;35.23;33.30;;;;;;;13.90;100.00;96765.78;5054573;28;20219;-62
2022/07/01 01:08:23;;;;;;;35.47;33.70;;;;;;;13.92;100.00;96767.16;5072529;28;20185;-62
2022/07/01 01:10:48;;;;;;;36.70;34.80;;;;;;;13.98;100.00;96768.81;5054489;28;20252;-62
2022/07/01 01:13:14;;;;;;;38.80;36.73;;;;;;;14.08;100.00;96766.25;5072145;28;20162;-62
2022/07/01 01:15:39;;;;;;;40.73;38.67;;;;;;;14.00;100.00;96756.16;5054119;28;20169;-62
2022/07/01 01:18:06;;;;;;;35.77;33.83;;;;;;;14.11;100.00;96754.41;5072499;28;20169;-62
2022/07/01 01:20:34;;;;;;;36.73;34.83;;;;;;;14.20;100.00;96741.59;5072203;28;20258;-62
2022/07/01 01:23:00;;;;;;;33.17;31.50;;;;;;;14.24;100.00;96738.19;5072466;28;20225;-62
2022/07/01 01:25:25;;;;;;;28.13;26.63;;;;;;;14.17;100.00;96740.22;5072100;28;20533;-62
2022/07/01 01:27:51;;;;;;;25.33;23.93;;;;;;;14.05;100.00;96743.03;5072115;28;20189;-62
2022/07/01 01:30:16;;;;;;;25.87;24.47;;;;;;;13.89;100.00;96736.00;5071975;28;20227;-62
2022/07/01 01:32:42;;;;;;;23.83;22.53;;;;;;;13.82;100.00;96732.00;5072135;28;20272;-62
2022/07/01 01:35:13;;;;;;;23.50;22.20;;;;;;;13.71;100.00;96733.72;5072179;28;20185;-62
2022/07/01 01:37:38;;;;;;;22.97;21.73;;;;;;;13.51;100.00;96720.31;5071794;28;20189;-62
2022/07/01 01:40:04;;;;;;;25.67;24.37;;;;;;;13.53;100.00;96705.88;5070035;28;20232;-62
2022/07/01 01:42:30;;;;;;;26.17;24.87;;;;;;;13.41;100.00;96704.41;5071617;28;20556;-62
2022/07/01 01:44:56;;;;;;;25.47;24.17;;;;;;;13.53;100.00;96697.19;5072073;28;20196;-62
2022/07/01 01:47:22;;;;;;;27.30;25.87;;;;;;;13.58;100.00;96684.88;5071953;28;20189;-62
2022/07/01 01:49:47;;;;;;;24.73;23.43;;;;;;;13.53;100.00;96686.66;5071907;28;20605;-62
2022/07/01 01:52:12;;;;;;;25.43;24.13;;;;;;;13.54;100.00;96677.72;5071856;28;20197;-62
2022/07/01 01:54:38;;;;;;;23.20;22.00;;;;;;;13.49;100.00;96677.63;5071870;28;20219;-62
2022/07/01 01:57:04;;;;;;;28.37;26.90;;;;;;;13.27;100.00;96672.41;5071428;28;20615;-62
2022/07/01 01:59:30;;;;;;;21.57;20.47;;;;;;;13.31;100.00;96658.53;5073252;28;20172;-62
2022/07/01 02:01:56;;;;;;;22.50;21.40;;;;;;;13.29;100.00;96659.78;5075977;28;20197;-61
2022/07/01 02:04:23;;;;;;;29.83;28.20;;;;;;;13.15;100.00;96655.97;5057492;28;20598;-61
2022/07/01 02:06:49;;;;;;;24.50;23.20;;;;;;;13.23;100.00;96644.97;5075693;28;20226;-61
2022/07/01 02:09:15;;;;;;;25.87;24.57;;;;;;;13.31;100.00;96649.81;5075535;28;20734;-61
2022/07/01 02:11:40;;;;;;;26.33;24.93;;;;;;;13.50;100.00;96648.44;5075593;28;20296;-62
2022/07/01 02:14:06;;;;;;;28.50;27.10;;;;;;;13.23;100.00;96644.97;5075448;28;20156;-62
2022/07/01 02:16:31;;;;;;;29.73;28.10;;;;;;;13.27;100.00;96631.06;5075469;28;20219;-61
2022/07/01 02:18:57;;;;;;;26.73;25.23;;;;;;;13.26;100.00;96641.88;5075570;28;20166;-62
2022/07/01 02:21:22;;;;;;;27.23;25.83;;;;;;;13.27;100.00;96641.59;5075272;28;20289;-62
2022/07/01 02:23:47;;;;;;;25.47;24.07;;;;;;;13.38;100.00;96641.72;5075459;28;20197;-62
2022/07/01 02:26:13;;;;;;;28.40;26.90;;;;;;;13.12;100.00;96633.56;5075226;28;20574;-62
2022/07/01 02:28:38;;;;;;;26.40;25.10;;;;;;;13.22;100.00;96632.88;5075218;28;20181;-62
2022/07/01 02:31:04;;;;;;;25.23;23.90;;;;;;;13.32;100.00;96639.03;5074964;28;20205;-62
2022/07/01 02:33:29;;;;;;;28.17;26.70;;;;;;;13.42;100.00;96648.09;5074937;28;20249;-62
2022/07/01 02:35:55;;;;;;;32.33;30.60;;;;;;;13.11;100.00;96652.97;5075079;28;20600;-63
2022/07/01 02:38:21;;;;;;;25.63;24.33;;;;;;;13.22;100.00;96674.97;5072733;28;20244;-62
2022/07/01 02:40:46;;;;;;;27.17;25.77;;;;;;;13.32;100.00;96675.88;5075054;28;20216;-63
2022/07/01 02:43:12;;;;;;;30.47;28.87;;;;;;;13.40;100.00;96673.88;5063686;28;20260;-64
2022/07/01 02:45:37;;;;;;;35.17;33.30;;;;;;;13.25;100.00;96674.50;5055116;28;20269;-63
2022/07/01 02:48:04;;;;;;;29.93;28.43;;;;;;;13.36;100.00;96678.03;5054724;28;20221;-64
2022/07/01 02:50:30;;;;;;;30.80;29.27;;;;;;;13.13;100.00;96677.25;5054714;28;20206;-62
2022/07/01 02:52:55;;;;;;;26.37;25.07;;;;;;;13.19;100.00;96683.38;5054900;28;20165;-62
2022/07/01 02:55:21;;;;;;;24.90;23.60;;;;;;;13.26;100.00;96674.22;5036766;28;20174;-62
2022/07/01 02:57:49;;;;;;;25.90;24.60;;;;;;;13.17;100.00;96680.97;5054561;28;20166;-62
2022/07/01 03:00:15;;;;;;;33.77;32.07;;;;;;;13.28;100.00;96693.22;5054655;28;20154;-63
2022/07/01 03:02:40;;;;;;;32.53;30.77;;;;;;;13.22;100.00;96696.03;5054465;28;20198;-63
2022/07/01 03:05:06;;;;;;;33.00;31.23;;;;;;;13.29;100.00;96686.13;5054674;28;20247;-63
2022/07/01 03:07:32;;;;;;;28.10;26.60;;;;;;;13.29;100.00;96694.00;5054526;28;20174;-63
2022/07/01 03:09:57;;;;;;;25.17;23.87;;;;;;;13.21;100.00;96705.75;5054270;28;20193;-62
2022/07/01 03:12:29;;;;;;;33.73;31.83;;;;;;;13.51;100.00;96715.84;5054486;28;20253;-63
2022/07/01 03:14:58;;;;;;;30.73;29.07;;;;;;;13.54;100.00;96718.00;5054376;28;20212;-63
2022/07/01 03:17:24;;;;;;;30.63;28.93;;;;;;;13.61;100.00;96717.81;5054536;28;20170;-63
2022/07/01 03:19:51;;;;;;;31.30;29.63;;;;;;;13.58;100.00;96724.38;5054482;28;20184;-63
2022/07/01 03:22:17;;;;;;;26.87;25.40;;;;;;;13.58;100.00;96726.22;5054582;28;20217;-63
2022/07/01 03:24:42;;;;;;;28.07;26.50;;;;;;;13.67;100.00;96724.72;5054123;28;20194;-63
2022/07/01 03:27:08;;;;;;;25.63;24.13;;;;;;;13.59;100.00;96731.25;5054197;28;20202;-63
2022/07/01 03:29:33;;;;;;;21.40;20.20;;;;;;;13.79;100.00;96749.09;5053955;28;20224;-63
2022/07/01 03:31:59;;;;;;;23.63;22.43;;;;;;;13.76;100.00;96761.97;5053956;28;20202;-63
2022/07/01 03:34:24;;;;;;;21.17;20.07;;;;;;;13.87;100.00;96758.41;5053960;28;20256;-63
2022/07/01 03:36:50;;;;;;;22.77;21.50;;;;;;;13.82;100.00;96758.34;5054002;28;20534;-63
2022/07/01 03:39:15;;;;;;;18.77;17.87;;;;;;;13.91;100.00;96764.75;5046785;28;20548;-63
2022/07/01 03:41:41;;;;;;;18.23;17.27;;;;;;;14.01;100.00;96772.75;5055255;28;20211;-63
2022/07/01 03:44:06;;;;;;;21.43;20.23;;;;;;;13.95;100.00;96771.91;5073492;28;20227;-63
2022/07/01 03:46:32;;;;;;;31.67;29.97;;;;;;;13.86;100.00;96770.78;5073702;28;20192;-63
2022/07/01 03:48:58;;;;;;;30.50;28.77;;;;;;;13.80;100.00;96779.66;5073829;28;20273;-63
2022/07/01 03:51:24;;;;;;;33.57;31.73;;;;;;;13.93;100.00;96784.53;5073654;28;20201;-63
2022/07/01 03:56:33;;;;;;;28.03;26.53;;;;;;;13.81;100.00;96786.53;5073537;28;20223;-63
2022/07/01 03:58:58;;;;;;;21.23;19.93;;;;;;;13.66;100.00;96792.41;5073530;28;20200;-63
2022/07/01 04:01:24;;;;;;;18.47;17.50;;;;;;;13.56;100.00;96792.28;5073474;28;20204;-63
2022/07/01 04:03:49;;;;;;;29.97;28.37;;;;;;;13.62;100.00;96807.09;5073750;28;20201;-63
2022/07/01 04:06:15;;;;;;;28.70;27.03;;;;;;;13.73;100.00;96831.72;5073739;28;20165;-63
2022/07/01 04:08:41;;;;;;;37.43;35.23;;;;;;;13.78;100.00;96837.06;5073391;28;20188;-64
2022/07/01 04:11:08;;;;;;;35.47;33.57;;;;;;;13.63;100.00;96839.50;5073456;28;20255;-64
2022/07/01 04:13:36;;;;;;;36.30;34.23;;;;;;;13.68;100.00;96850.13;5073153;28;20174;-63
2022/07/01 04:16:02;;;;;;;41.17;39.00;;;;;;;13.74;100.00;96852.56;5073287;28;20161;-63
2022/07/01 04:18:28;;;;;;;43.50;41.20;;;;;;;13.75;100.00;96853.38;5073396;28;20169;-64
2022/07/01 04:23:37;;;;;;;41.77;39.27;;;;;;;13.53;100.00;96858.63;5072628;28;20208;-64
2022/07/01 04:26:03;;;;;;;42.03;39.63;;;;;;;13.54;100.00;96860.19;5073137;28;20185;-64
2022/07/01 04:28:28;;;;;;;36.43;34.53;;;;;;;13.72;100.00;96874.91;5072985;28;20268;-64
2022/07/01 04:30:54;;;;;;;38.53;36.53;;;;;;;13.63;100.00;96874.56;5073004;28;20192;-63
2022/07/01 04:33:19;;;;;;;39.07;37.07;;;;;;;13.64;100.00;96870.88;5072870;28;20556;-64
2022/07/01 04:35:44;;;;;;;40.33;38.23;;;;;;;13.50;100.00;96868.81;5072774;28;20185;-63
2022/07/01 04:38:10;;;;;;;36.80;34.87;;;;;;;13.43;100.00;96874.25;5070877;28;20235;-64
2022/07/01 04:40:35;;;;;;;43.27;40.97;;;;;;;13.28;100.00;96863.50;5072760;28;20255;-64
2022/07/01 04:43:01;;;;;;;37.67;35.73;;;;;;;13.37;100.00;96859.44;5072183;28;20224;-63
2022/07/01 04:45:26;;;;;;;37.13;35.23;;;;;;;13.27;100.00;96867.19;5072716;28;20230;-63
2022/07/01 04:47:51;;;;;;;33.70;32.00;;;;;;;13.26;100.00;96865.63;5054900;28;20170;-61
2022/07/01 04:50:17;;;;;;;31.90;30.30;;;;;;;13.30;100.00;96871.97;5054458;28;20289;-64
2022/07/01 04:52:42;;;;;;;35.20;33.17;;;;;;;12.95;100.00;96874.03;5072655;28;20177;-63
2022/07/01 04:55:08;;;;;;;32.77;30.97;;;;;;;13.15;100.00;96871.75;5072406;28;20166;-63
2022/07/01 04:57:33;;;;;;;37.53;35.53;;;;;;;13.00;100.00;96866.22;5072813;28;20570;-63
2022/07/01 04:59:59;;;;;;;38.07;35.50;;;;;;;13.20;100.00;96866.56;5072979;28;20158;-63
2022/07/01 05:02:24;;;;;;;43.13;40.90;;;;;;;13.28;100.00;96868.78;5072414;28;20180;-64
2022/07/01 05:04:50;;;;;;;47.07;44.40;;;;;;;13.43;100.00;96876.88;5072406;28;20205;-64
2022/07/01 05:07:31;;;;;;;50.17;47.47;;;;;;;13.31;100.00;96871.75;5072452;28;20227;-63
2022/07/01 05:09:56;;;;;;;53.27;50.17;;;;;;;13.45;100.00;96881.91;5054341;28;20645;-64
2022/07/01 05:12:22;;;;;;;54.23;51.43;;;;;;;13.50;100.00;96889.88;5054804;28;20181;-64
2022/07/01 05:14:49;;;;;;;54.87;51.83;;;;;;;13.49;100.00;96899.63;5072167;28;20154;-64
2022/07/01 05:17:15;;;;;;;52.73;50.07;;;;;;;13.38;100.00;96891.81;5072281;28;20626;-64
2022/07/01 05:22:24;;;;;;;43.77;41.43;;;;;;;13.11;100.00;96889.00;5072407;28;20640;-64
2022/07/01 05:24:50;;;;;;;45.23;42.77;;;;;;;13.20;100.00;96892.88;5071974;28;20185;-64
2022/07/01 05:27:15;;;;;;;49.43;46.93;;;;;;;13.01;100.00;96879.13;5072396;28;20684;-64
2022/07/01 05:29:40;;;;;;;41.30;39.17;;;;;;;13.15;100.00;96885.69;5072087;28;20255;-64
2022/07/01 05:32:06;;;;;;;36.60;34.57;;;;;;;13.23;100.00;96874.78;5071858;28;20205;-64
2022/07/01 05:34:32;;;;;;;42.87;40.47;;;;;;;13.18;100.00;96876.53;5073640;28;20177;-64
2022/07/01 05:36:58;;;;;;;49.13;46.47;;;;;;;13.12;100.00;96880.91;5076297;28;20193;-64
2022/07/01 05:39:23;;;;;;;45.20;42.77;;;;;;;13.17;100.00;96870.47;5074190;28;20294;-64
2022/07/01 05:41:49;;;;;;;48.00;45.43;;;;;;;12.94;100.00;96865.34;5075430;28;20205;-65
2022/07/01 05:44:14;;;;;;;41.97;39.77;;;;;;;13.11;100.00;96875.84;5076212;28;20201;-63
2022/07/01 05:46:40;;;;;;;40.07;37.80;;;;;;;13.23;100.00;96889.75;5076103;28;20204;-63
2022/07/01 05:49:05;;;;;;;37.37;35.27;;;;;;;13.03;100.00;96892.06;5076325;28;20257;-63
2022/07/01 05:51:31;;;;;;;38.27;36.00;;;;;;;13.22;100.00;96906.59;5076218;28;20203;-63
2022/07/01 05:53:57;;;;;;;35.53;33.57;;;;;;;13.38;100.00;96894.44;5075769;28;20162;-63
2022/07/01 05:56:23;;;;;;;31.70;29.93;;;;;;;13.21;100.00;96886.56;5075422;28;20161;-63
2022/07/01 05:58:49;;;;;;;77.23;72.43;;;;;;;13.23;100.00;96885.31;5057975;28;20169;-63
2022/07/01 06:01:14;;;;;;;34.90;32.70;;;;;;;13.30;100.00;96880.69;5075792;28;20204;-63
2022/07/01 06:03:40;;;;;;;34.27;32.27;;;;;;;13.19;100.00;96871.03;5075880;28;20654;-63
2022/07/01 06:06:05;;;;;;;37.23;35.00;;;;;;;13.41;100.00;96870.28;5075862;28;20193;-65
2022/07/01 06:08:32;;;;;;;35.03;32.97;;;;;;;13.20;100.00;96871.84;5075819;28;20181;-63
2022/07/01 06:10:57;;;;;;;42.63;40.23;;;;;;;13.04;100.00;96876.00;5075634;28;20224;-63
2022/07/01 06:13:22;;;;;;;32.43;30.37;;;;;;;13.06;100.00;96879.22;5075485;28;20536;-63
2022/07/01 06:15:48;;;;;;;36.17;34.13;;;;;;;13.13;100.00;96887.78;5075533;28;20252;-63
2022/07/01 06:18:13;;;;;;;37.20;35.10;;;;;;;13.33;100.00;96909.13;5075876;28;20166;-63
2022/07/01 06:20:39;;;;;;;42.33;39.83;;;;;;;13.50;100.00;96909.13;5075426;28;20197;-63
2022/07/01 06:23:04;;;;;;;41.87;39.53;;;;;;;13.28;100.00;96916.97;5075185;28;20200;-63
2022/07/01 06:25:29;;;;;;;37.07;34.87;;;;;;;13.28;100.00;96921.44;5075273;28;20273;-62
2022/07/01 06:27:55;;;;;;;36.93;34.73;;;;;;;13.40;100.00;96932.69;5057403;28;20183;-63
2022/07/01 06:30:20;;;;;;;40.83;37.77;;;;;;;13.55;100.00;96913.66;5075208;28;20665;-63
2022/07/01 06:32:45;;;;;;;37.00;34.80;;;;;;;13.64;100.00;96918.28;5075427;28;20213;-63
2022/07/01 06:35:11;;;;;;;33.87;31.73;;;;;;;13.31;100.00;96924.41;5075203;28;20181;-63
2022/07/01 06:37:37;;;;;;;33.30;31.33;;;;;;;13.50;100.00;96919.66;5057527;28;20227;-63
2022/07/01 06:40:04;;;;;;;35.90;33.80;;;;;;;13.82;100.00;96913.78;5072944;28;20228;-63
2022/07/01 06:42:29;;;;;;;33.97;31.90;;;;;;;13.73;100.00;96923.94;5074427;28;20628;-63
2022/07/01 06:44:55;;;;;;;32.60;30.60;;;;;;;13.85;100.00;96931.72;5074609;28;20169;-63
2022/07/01 06:47:20;;;;;;;31.80;29.80;;;;;;;13.82;100.00;96929.59;5075149;28;20643;-63
2022/07/01 06:49:45;;;;;;;32.00;30.20;;;;;;;13.94;100.00;96927.63;5075161;28;20172;-63
2022/07/01 06:52:11;;;;;;;31.73;29.90;;;;;;;13.81;100.00;96923.53;5074958;28;20220;-63
2022/07/01 06:54:37;;;;;;;26.80;25.17;;;;;;;13.89;100.00;96924.94;5074802;28;20171;-63
2022/07/01 06:57:04;;;;;;;25.27;23.67;;;;;;;13.93;100.00;96944.50;5074474;28;20584;-63
2022/07/01 06:59:29;;;;;;;27.20;25.60;;;;;;;13.99;100.00;96940.88;5074846;28;20169;-63
2022/07/01 07:01:55;;;;;;;34.80;32.80;;;;;;;13.90;100.00;96950.25;5074832;28;20257;-63
2022/07/01 07:04:20;;;;;;;30.70;29.00;;;;;;;13.81;100.00;96959.63;5074617;28;20272;-63
2022/07/01 07:06:45;;;;;;;38.27;36.17;;;;;;;13.91;100.00;96968.44;5074827;28;20614;-63
2022/07/01 07:09:11;;;;;;;42.57;40.23;;;;;;;13.85;100.00;96969.41;5074704;28;20220;-62
2022/07/01 07:11:36;;;;;;;43.30;40.90;;;;;;;13.97;100.00;96966.69;5074418;28;20626;-62
2022/07/01 07:14:02;;;;;;;42.23;39.67;;;;;;;14.03;100.00;96970.97;5074084;28;20610;-62
2022/07/01 07:16:36;;;;;;;41.67;39.47;;;;;;;14.24;100.00;96964.94;5073857;28;20174;-62
2022/07/01 07:19:12;;;;;;;32.70;30.90;;;;;;;14.26;100.00;96968.13;5074529;28;20578;-63
2022/07/01 07:21:38;;;;;;;30.53;28.80;;;;;;;14.35;100.00;96966.66;5074381;28;20200;-63
2022/07/01 07:24:03;;;;;;;33.80;31.87;;;;;;;13.88;100.00;96979.47;5074162;28;20193;-63
2022/07/01 07:26:29;;;;;;;26.80;25.13;;;;;;;14.06;100.00;96979.19;5074119;28;20173;-63
2022/07/01 07:28:54;;;;;;;47.80;45.17;;;;;;;14.02;100.00;96983.38;5055888;28;20184;-63
2022/07/01 07:31:20;;;;;;;42.77;40.47;;;;;;;14.08;100.00;96979.75;5074206;28;20383;-62
2022/07/01 07:33:45;;;;;;;49.53;46.93;;;;;;;13.93;100.00;96976.91;5055927;28;20177;-63
2022/07/01 07:36:10;;;;;;;57.77;54.67;;;;;;;13.94;100.00;96981.13;5074196;28;20260;-62
2022/07/01 07:38:39;;;;;;;63.67;60.37;;;;;;;13.88;100.00;96983.94;5071688;28;20228;-62
2022/07/01 07:41:05;;;;;;;37.27;35.37;;;;;;;14.17;100.00;96974.84;5073935;28;20288;-63
2022/07/01 07:43:31;;;;;;;30.30;28.50;;;;;;;14.24;100.00;96985.22;5074053;28;20222;-63
2022/07/01 07:45:56;;;;;;;34.67;32.83;;;;;;;14.28;100.00;96975.78;5074258;28;20299;-63
2022/07/01 07:48:21;;;;;;;36.50;34.60;;;;;;;13.96;100.00;96957.97;5074034;28;20522;-63
2022/07/01 07:50:47;;;;;;;26.17;24.77;;;;;;;14.04;100.00;96972.59;5073853;28;20193;-63
2022/07/01 07:53:13;;;;;;;32.60;30.83;;;;;;;14.01;100.00;96992.31;5074219;28;20161;-64
2022/07/01 07:55:38;;;;;;;38.30;36.20;;;;;;;14.06;100.00;96989.72;5055713;28;20181;-64
2022/07/01 07:58:05;;;;;;;39.20;37.13;;;;;;;13.87;100.00;96983.16;5072606;28;20161;-64
2022/07/01 08:00:31;;;;;;;41.13;38.90;;;;;;;13.85;100.00;96979.16;5074003;28;20291;-64
2022/07/01 08:02:56;;;;;;;41.87;39.57;;;;;;;13.89;100.00;96973.16;5073814;28;20655;-64
2022/07/01 08:05:21;;;;;;;42.03;39.83;;;;;;;13.96;100.00;96971.16;5073478;28;20582;-64
2022/07/01 08:07:47;;;;;;;40.43;38.23;;;;;;;14.23;100.00;96987.06;5073334;28;20230;-64
2022/07/01 08:10:13;;;;;;;40.47;38.37;;;;;;;14.09;100.00;96996.38;5073455;28;20166;-64
2022/07/01 08:12:39;;;;;;;34.17;32.17;;;;;;;14.06;100.00;96989.72;5073801;28;20157;-64
2022/07/01 08:15:06;;;;;;;30.40;28.73;;;;;;;14.02;100.00;96993.09;5054250;28;20197;-63
2022/07/01 08:17:31;;;;;;;29.50;27.90;;;;;;;14.22;100.00;97001.28;5073238;28;20161;-63
2022/07/01 08:19:57;;;;;;;33.17;31.37;;;;;;;14.03;100.00;96986.78;5073566;28;20177;-63
2022/07/01 08:22:22;;;;;;;29.00;27.50;;;;;;;14.25;100.00;96998.16;5073435;28;20487;-64
2022/07/01 08:24:48;;;;;;;33.57;31.77;;;;;;;14.33;100.00;96999.56;5073045;28;20717;-64
2022/07/01 08:27:13;;;;;;;23.47;22.20;;;;;;;14.16;100.00;97008.31;5073118;28;20606;-64
2022/07/01 08:29:39;;;;;;;19.23;18.17;;;;;;;14.64;100.00;97011.31;5055187;28;20552;-64
2022/07/01 08:32:06;;;;;;;15.23;14.43;;;;;;;14.77;100.00;97016.19;5073172;28;20283;-64
2022/07/01 08:34:31;;;;;;;18.70;17.73;;;;;;;14.94;100.00;97020.34;5073219;28;20173;-64
2022/07/01 08:36:56;;;;;;;20.83;19.83;;;;;;;15.09;100.00;97021.56;5058416;28;20192;-65
2022/07/01 08:39:23;;;;;;;31.17;29.53;;;;;;;14.83;100.00;97023.94;5074839;28;20236;-64
2022/07/01 08:41:49;;;;;;;36.03;34.23;;;;;;;14.97;100.00;97021.72;5076927;28;20288;-64
2022/07/01 08:44:14;;;;;;;34.93;33.07;;;;;;;15.18;100.00;97017.44;5073295;28;20570;-64
2022/07/01 08:46:41;;;;;;;38.87;36.83;;;;;;;15.12;100.00;97027.16;5073114;28;20212;-63
2022/07/01 08:49:06;;;;;;;52.87;50.03;;;;;;;15.17;100.00;97039.59;5073096;28;20196;-63
2022/07/01 08:51:32;;;;;;;36.47;34.53;;;;;;;14.81;100.00;97033.97;5072557;28;20279;-63
2022/07/01 08:53:57;;;;;;;41.73;39.53;;;;;;;14.57;100.00;97041.31;5072667;28;20170;-63
2022/07/01 08:56:40;;;;;;;48.63;46.10;;;;;;;14.77;100.00;97037.31;5072397;28;20223;-63
2022/07/01 08:59:06;;;;;;;28.80;27.37;;;;;;;14.49;100.00;97036.47;5073022;28;20196;-63
2022/07/01 09:01:33;;;;;;;35.50;33.67;;;;;;;14.48;100.00;97039.38;5072624;28;20756;-64
2022/07/01 09:04:19;;;;;;;41.70;39.53;;;;;;;14.54;100.00;97047.06;5072547;28;20197;-63
2022/07/01 09:06:46;;;;;;;32.83;31.07;;;;;;;14.69;100.00;97045.69;5071893;28;20677;-65
2022/07/01 09:09:14;;;;;;;40.50;38.33;;;;;;;14.63;100.00;97031.63;5054539;28;20204;-66
2022/07/01 09:11:53;;;;;;;58.63;55.23;;;;;;;14.64;100.00;97035.88;5072682;28;20276;-67
2022/07/01 09:14:21;;;;;;;34.50;32.27;;;;;;;14.79;100.00;97036.03;5071966;28;20704;-69
2022/07/01 09:16:52;;;;;;;57.47;54.47;;;;;;;14.54;100.00;97043.66;5053209;28;20162;-67
2022/07/01 09:19:20;;;;;;;29.87;28.30;;;;;;;14.58;100.00;97036.84;5053012;28;20189;-68
2022/07/01 09:21:53;;;;;;;60.40;57.10;;;;;;;14.19;100.00;97033.41;5053939;28;20208;-60
2022/07/01 09:24:24;;;;;;;43.53;41.27;;;;;;;14.01;100.00;97020.50;5071367;28;20661;-58
2022/07/01 09:27:13;;;;;;;23.30;22.10;;;;;;;13.83;100.00;97018.91;5054598;28;20184;-60
2022/07/01 09:30:09;;;;;;;31.30;29.63;;;;;;;14.10;100.00;97040.13;5071856;28;20193;-60
2022/07/01 09:32:34;;;;;;;42.27;40.03;;;;;;;14.23;100.00;97068.78;5069740;28;20570;-58
2022/07/01 09:34:59;;;;;;;45.97;43.50;;;;;;;14.49;100.00;97075.22;5070835;28;20189;-59
2022/07/01 09:37:25;;;;;;;42.10;39.77;;;;;;;14.51;100.00;97071.31;5071216;28;20193;-62
2022/07/01 09:39:53;;;;;;;64.43;59.73;;;;;;;14.30;100.00;97063.34;5069082;28;20244;-60
2022/07/01 09:42:20;;;;;;;36.80;34.83;;;;;;;14.52;100.00;97057.09;5070883;28;20209;-57
2022/07/01 09:45:06;;;;;;;31.10;29.30;;;;;;;13.90;100.00;97037.19;5071389;28;20214;-58
2022/07/01 09:47:35;;;;;;;46.77;44.17;;;;;;;14.21;100.00;97033.94;5063238;28;20630;-60
2022/07/01 09:50:06;;;;;;;42.50;40.30;;;;;;;14.06;100.00;97033.75;5054588;28;20703;-59
2022/07/01 09:52:32;;;;;;;45.00;42.60;;;;;;;14.07;100.00;97040.63;5067967;28;20166;-58
2022/07/01 09:54:58;;;;;;;35.47;33.47;;;;;;;14.44;100.00;97036.41;5052523;28;20158;-59
2022/07/01 09:57:23;;;;;;;42.67;40.37;;;;;;;14.02;100.00;97024.72;5079885;28;20180;-56
2022/07/01 09:59:49;;;;;;;41.70;39.50;;;;;;;14.19;100.00;97045.78;5092049;28;20186;-58
2022/07/01 10:02:18;;;;;;;35.80;33.97;;;;;;;14.02;100.00;97041.34;5092006;28;20200;-58
2022/07/01 10:04:53;;;;;;;35.70;33.83;;;;;;;14.26;100.00;97056.97;5091992;28;20185;-54
2022/07/01 10:07:44;;;;;;;33.20;31.23;;;;;;;14.42;100.00;97053.53;5092024;28;20167;-56
2022/07/01 10:10:28;;;;;;;34.87;32.97;;;;;;;14.52;100.00;97048.38;5072523;28;20538;-55
2022/07/01 10:12:55;;;;;;;40.57;38.43;;;;;;;14.52;100.00;97058.94;5071657;28;20567;-54
2022/07/01 10:15:21;;;;;;;42.67;40.40;;;;;;;13.98;100.00;97071.88;5071371;28;20502;-53
2022/07/01 10:17:49;;;;;;;24.80;23.27;;;;;;;14.28;100.00;97074.13;5071779;28;20170;-53
2022/07/01 10:20:33;;;;;;;23.83;22.57;;;;;;;14.36;100.00;97079.00;5072598;28;20177;-53
2022/07/01 10:23:05;;;;;;;19.10;17.90;;;;;;;13.88;100.00;97068.25;5072726;28;20204;-54
2022/07/01 10:25:32;;;;;;;25.37;23.83;;;;;;;13.95;100.00;97071.53;5074204;28;20319;-53
2022/07/01 10:28:45;;;;;;;23.40;22.10;;;;;;;14.40;100.00;97074.06;5074144;28;20204;-60
2022/07/01 10:31:16;;;;;;;33.47;31.57;;;;;;;14.77;100.00;97085.63;5067453;28;20217;-56
2022/07/01 10:33:53;;;;;;;21.20;20.00;;;;;;;14.21;100.00;97088.53;5074902;28;20208;-57
2022/07/01 10:36:21;;;;;;;28.33;26.33;;;;;;;14.16;100.00;97100.59;5075060;28;20788;-54
2022/07/01 10:39:16;;;;;;;33.63;31.77;;;;;;;14.39;100.00;97089.06;5072751;28;20220;-54
2022/07/01 10:41:56;;;;;;;64.23;60.70;;;;;;;14.75;100.00;97089.56;5074761;28;20296;-55
2022/07/01 10:44:23;;;;;;;55.60;52.43;;;;;;;15.11;100.00;97110.03;5057302;28;20255;-58
2022/07/01 10:46:57;;;;;;;42.53;40.27;;;;;;;15.14;100.00;97104.28;5074960;28;20177;-56
2022/07/01 10:49:38;;;;;;;67.30;63.77;;;;;;;15.25;100.00;97116.53;5075201;28;20174;-54
2022/07/01 10:52:14;;;;;;;123.80;117.03;;;;;;;15.24;100.00;97116.78;5074669;28;20206;-59
2022/07/01 10:54:39;;;;;;;47.30;44.77;;;;;;;15.60;100.00;97120.63;5074674;28;20172;-57
2022/07/01 10:57:29;;;;;;;40.23;38.10;;;;;;;15.99;100.00;97119.41;5074550;28;20169;-52
2022/07/01 11:00:01;;;;;;;32.07;30.40;;;;;;;16.06;100.00;97121.81;5074784;28;20154;-55
2022/07/01 11:02:34;;;;;;;52.13;49.37;;;;;;;16.48;100.00;97124.50;5074069;28;20173;-52
2022/07/01 11:05:07;;;;;;;139.97;132.77;;;;;;;16.39;100.00;97124.16;5063225;28;20208;-54
2022/07/01 11:07:35;;;;;;;74.20;70.30;;;;;;;16.32;100.00;97117.50;5072597;28;20173;-55
2022/07/01 11:10:03;;;;;;;128.57;122.10;;;;;;;16.17;100.00;97119.00;5054633;28;20284;-52
2022/07/01 11:12:30;;;;;;;66.67;63.10;;;;;;;16.22;100.00;97121.66;5055794;28;20240;-57
2022/07/01 11:15:01;;;;;;;84.87;80.50;;;;;;;16.79;100.00;97110.38;5070313;28;20618;-57
2022/07/01 11:17:27;;;;;;;91.17;86.20;;;;;;;16.97;100.00;97112.59;5074083;28;20174;-56